Time;durP1;ratioP1;P1;durP2;ratioP2;P2;SDS_P1;SDS_P2;PMS_P1;PMS_P2;Temp;Humidity;BMP_temperature;BMP_pressure;BME280_temperature;BME280_humidity;BME280_pressure;Samples;Min_cycle;Max_cycle;Signal;HPM_P1;HPM_P2
2022/08/23 00:02:18;;;;;;;15.07;8.68;;;16.10;99.90;;;;;;5070364;28;20460;-84
2022/08/23 00:05:03;;;;;;;15.50;9.63;;;16.20;99.90;;;;;;5061340;28;20496;-85
2022/08/23 00:07:47;;;;;;;14.43;8.27;;;16.30;99.90;;;;;;5071516;28;20553;-84
2022/08/23 00:10:31;;;;;;;17.02;9.10;;;16.70;99.90;;;;;;5070741;28;20512;-84
2022/08/23 00:13:16;;;;;;;13.90;9.82;;;16.20;99.90;;;;;;5032726;28;20088;-84
2022/08/23 00:16:00;;;;;;;14.98;9.38;;;16.20;99.90;;;;;;5041387;28;20036;-84
2022/08/23 00:18:44;;;;;;;26.05;10.57;;;16.00;99.90;;;;;;5041700;28;20829;-85
2022/08/23 00:21:29;;;;;;;13.45;9.90;;;16.40;99.90;;;;;;5035966;28;20044;-84
2022/08/23 00:24:14;;;;;;;14.95;9.38;;;16.20;99.90;;;;;;5024191;28;20059;-84
2022/08/23 00:27:09;;;;;;;19.38;10.40;;;16.10;99.90;;;;;;5038563;28;20539;-84
2022/08/23 00:29:54;;;;;;;20.75;12.60;;;15.90;99.90;;;;;;5050628;28;20036;-84
2022/08/23 00:32:39;;;;;;;22.88;12.35;;;15.80;99.90;;;;;;5054283;28;20447;-84
2022/08/23 00:35:24;;;;;;;22.45;12.68;;;16.30;99.90;;;;;;5051546;28;20087;-85
2022/08/23 00:38:09;;;;;;;21.48;11.15;;;16.20;99.90;;;;;;5041966;28;20040;-84
2022/08/23 00:40:53;;;;;;;20.27;11.98;;;15.80;99.90;;;;;;5026103;28;20119;-84
2022/08/23 00:49:57;;;;;;;19.27;12.63;;;16.20;99.90;;;;;;5021385;28;20047;-84
2022/08/23 00:52:51;;;;;;;19.33;10.95;;;15.90;99.90;;;;;;5034124;28;20182;-84
2022/08/23 00:55:38;;;;;;;18.17;11.10;;;15.50;99.90;;;;;;5034929;28;20040;-84
2022/08/23 00:58:23;;;;;;;23.77;12.32;;;15.80;99.90;;;;;;5034607;28;20103;-85
2022/08/23 01:01:08;;;;;;;19.92;12.20;;;15.90;99.90;;;;;;5034554;28;20053;-84
2022/08/23 01:03:56;;;;;;;21.60;12.75;;;15.50;99.90;;;;;;5042150;28;20493;-84
2022/08/23 01:06:54;;;;;;;17.92;11.40;;;16.40;99.90;;;;;;5047030;28;20568;-85
2022/08/23 01:09:41;;;;;;;12.93;9.85;;;15.70;99.90;;;;;;5032828;28;20044;-84
2022/08/23 01:12:35;;;;;;;14.68;8.93;;;15.80;99.90;;;;;;5065690;28;20059;-84
2022/08/23 01:15:25;;;;;;;16.38;9.68;;;15.70;99.90;;;;;;5089982;28;20039;-85
2022/08/23 01:18:14;;;;;;;14.15;9.63;;;15.70;99.90;;;;;;5094572;28;20054;-84
2022/08/23 01:21:13;;;;;;;17.52;10.25;;;15.50;99.90;;;;;;5085748;28;20510;-84
2022/08/23 01:24:02;;;;;;;12.60;8.00;;;15.20;99.90;;;;;;5093885;28;20039;-85
2022/08/23 01:26:46;;;;;;;15.85;9.90;;;15.60;99.90;;;;;;5083246;28;20063;-85
2022/08/23 01:29:31;;;;;;;17.88;10.43;;;15.60;99.90;;;;;;5085316;28;20241;-84
2022/08/23 01:32:16;;;;;;;20.70;11.70;;;15.30;99.90;;;;;;5073122;28;20047;-84
2022/08/23 01:35:00;;;;;;;20.77;11.10;;;15.70;99.90;;;;;;5074762;28;20085;-85
2022/08/23 01:37:45;;;;;;;17.10;10.90;;;15.50;99.90;;;;;;5072482;28;20086;-85
2022/08/23 01:40:30;;;;;;;17.88;11.32;;;15.30;99.90;;;;;;5073601;28;20112;-84
2022/08/23 01:43:18;;;;;;;16.98;10.00;;;15.30;99.90;;;;;;5073300;28;20550;-85
2022/08/23 01:46:16;;;;;;;13.73;9.48;;;15.30;99.90;;;;;;5076034;28;20047;-85
2022/08/23 01:49:03;;;;;;;19.40;11.38;;;16.20;99.90;;;;;;5075528;28;20036;-85
2022/08/23 01:51:48;;;;;;;15.23;10.82;;;15.40;99.90;;;;;;5072772;28;20039;-84
2022/08/23 01:54:32;;;;;;;24.08;12.63;;;15.30;99.90;;;;;;5073522;28;20102;-84
2022/08/23 01:57:17;;;;;;;18.65;11.57;;;15.50;99.90;;;;;;5077693;28;20510;-84
2022/08/23 02:00:03;;;;;;;17.83;11.52;;;15.50;99.90;;;;;;5076247;28;20048;-85
2022/08/23 02:02:47;;;;;;;16.88;11.00;;;15.40;99.90;;;;;;5071801;28;20451;-84
2022/08/23 02:05:33;;;;;;;16.20;11.73;;;15.40;99.90;;;;;;5071971;28;20059;-85
2022/08/23 02:11:23;;;;;;;17.23;10.00;;;15.30;99.90;;;;;;5073237;28;20110;-84
2022/08/23 02:14:11;;;;;;;16.50;10.25;;;15.50;99.90;;;;;;5059551;28;20040;-84
2022/08/23 02:16:57;;;;;;;14.82;9.75;;;15.30;99.90;;;;;;5072499;28;20159;-85
2022/08/23 02:19:42;;;;;;;16.38;10.27;;;;;;;;;;5072437;28;20039;-85
2022/08/23 02:22:26;;;;;;;20.85;12.77;;;15.50;99.90;;;;;;5076501;28;20050;-84
2022/08/23 02:25:10;;;;;;;16.48;11.15;;;15.30;99.90;;;;;;5093089;28;20030;-84
2022/08/23 02:27:54;;;;;;;17.15;10.70;;;15.50;99.90;;;;;;5092403;28;20043;-85
2022/08/23 02:30:39;;;;;;;15.50;10.60;;;15.30;99.90;;;;;;5087742;28;20086;-85
2022/08/23 02:33:23;;;;;;;15.80;10.23;;;14.90;99.90;;;;;;5089952;28;20039;-84
2022/08/23 02:36:08;;;;;;;15.88;10.20;;;15.20;99.90;;;;;;5091711;28;20050;-84
2022/08/23 02:38:53;;;;;;;16.50;10.25;;;14.90;99.90;;;;;;5064186;28;20071;-85
2022/08/23 02:41:40;;;;;;;12.20;8.85;;;15.00;99.90;;;;;;5059486;28;20511;-85
2022/08/23 02:44:24;;;;;;;20.67;11.73;;;15.00;99.90;;;;;;5072541;28;20082;-84
2022/08/23 02:47:08;;;;;;;21.38;11.30;;;15.00;99.90;;;;;;5071956;28;20098;-85
2022/08/23 02:49:52;;;;;;;16.73;10.55;;;15.10;99.90;;;;;;5079801;28;20534;-85
2022/08/23 02:52:36;;;;;;;16.52;9.63;;;14.90;99.90;;;;;;5091490;28;20043;-84
2022/08/23 02:55:21;;;;;;;12.88;9.63;;;;;;;;;;5091132;28;20081;-85
2022/08/23 02:58:05;;;;;;;16.90;10.32;;;15.10;99.90;;;;;;5092194;28;20039;-84
2022/08/23 03:00:50;;;;;;;25.52;12.00;;;15.00;99.90;;;;;;5090278;28;20038;-85
2022/08/23 03:03:34;;;;;;;14.02;9.40;;;14.90;99.90;;;;;;5092396;28;20123;-87
2022/08/23 03:06:19;;;;;;;13.50;10.95;;;14.90;99.90;;;;;;5091537;28;20548;-85
2022/08/23 03:09:04;;;;;;;19.02;11.30;;;15.00;99.90;;;;;;5084373;28;20537;-85
2022/08/23 03:11:49;;;;;;;18.80;10.65;;;;;;;;;;5088222;28;20438;-86
2022/08/23 03:14:36;;;;;;;13.82;10.35;;;14.70;99.90;;;;;;5092459;28;20076;-85
2022/08/23 03:17:20;;;;;;;15.38;10.98;;;14.80;99.90;;;;;;5092188;28;20039;-85
2022/08/23 03:20:06;;;;;;;19.48;10.20;;;15.50;99.90;;;;;;5090830;28;20035;-85
2022/08/23 03:22:51;;;;;;;13.45;9.65;;;;;;;;;;5085776;28;20039;-86
2022/08/23 03:25:36;;;;;;;12.93;9.98;;;15.00;99.90;;;;;;5085268;28;20446;-86
2022/08/23 03:28:20;;;;;;;13.77;8.02;;;14.70;99.90;;;;;;5083304;28;20086;-85
2022/08/23 03:31:05;;;;;;;13.88;9.00;;;14.60;99.90;;;;;;5088185;28;20034;-85
2022/08/23 03:33:51;;;;;;;18.70;11.07;;;14.70;99.90;;;;;;5076679;28;20039;-86
2022/08/23 03:36:35;;;;;;;15.13;11.07;;;14.50;99.90;;;;;;5077034;28;20046;-85
2022/08/23 03:39:19;;;;;;;20.00;12.30;;;14.60;99.90;;;;;;5089160;28;20038;-85
2022/08/23 03:42:05;;;;;;;21.63;12.50;;;14.50;99.90;;;;;;5061576;28;20040;-85
2022/08/23 03:44:50;;;;;;;16.60;12.02;;;14.50;99.90;;;;;;5072566;28;20074;-85
2022/08/23 03:47:34;;;;;;;19.73;13.75;;;14.40;99.90;;;;;;5084765;28;20040;-86
2022/08/23 03:50:19;;;;;;;19.20;11.55;;;14.60;99.90;;;;;;5070692;28;20115;-85
2022/08/23 03:53:03;;;;;;;17.98;12.40;;;14.50;99.90;;;;;;5077249;28;20393;-85
2022/08/23 03:55:49;;;;;;;14.27;11.05;;;14.70;99.90;;;;;;5070572;28;20151;-85
2022/08/23 03:58:33;;;;;;;19.58;12.75;;;14.40;99.90;;;;;;5058830;28;20028;-85
2022/08/23 04:01:17;;;;;;;14.88;10.32;;;14.50;99.90;;;;;;5070919;28;20056;-85
2022/08/23 04:04:02;;;;;;;14.30;10.65;;;15.60;99.90;;;;;;5074685;28;20081;-85
2022/08/23 04:06:46;;;;;;;12.05;9.63;;;14.40;99.90;;;;;;5075311;28;20032;-85
2022/08/23 04:09:30;;;;;;;16.40;10.05;;;14.10;99.90;;;;;;5060346;28;20067;-85
2022/08/23 04:12:15;;;;;;;16.63;12.00;;;14.50;99.90;;;;;;5047820;28;20107;-85
2022/08/23 04:14:59;;;;;;;19.40;11.95;;;14.30;99.90;;;;;;5076207;28;20044;-85
2022/08/23 04:17:43;;;;;;;14.75;11.57;;;14.50;99.90;;;;;;5074302;28;20059;-85
2022/08/23 04:20:27;;;;;;;22.45;13.43;;;14.50;99.90;;;;;;5075045;28;20040;-85
2022/08/23 04:23:12;;;;;;;22.48;13.70;;;;;;;;;;5075479;28;20043;-85
2022/08/23 04:25:57;;;;;;;20.35;15.77;;;14.40;99.90;;;;;;5063734;28;20128;-85
2022/08/23 04:28:41;;;;;;;19.50;14.45;;;14.40;99.90;;;;;;5073966;28;20046;-85
2022/08/23 04:31:26;;;;;;;26.70;18.45;;;14.50;99.90;;;;;;5074489;28;20056;-87
2022/08/23 04:34:11;;;;;;;20.23;17.00;;;14.40;99.90;;;;;;5066151;28;20035;-85
2022/08/23 04:36:56;;;;;;;20.45;16.23;;;14.50;99.90;;;;;;5079962;28;20074;-85
2022/08/23 04:42:44;;;;;;;20.27;17.50;;;;;;;;;;5073841;28;20051;-85
2022/08/23 04:45:31;;;;;;;27.42;19.08;;;14.70;99.90;;;;;;5076140;28;20086;-84
2022/08/23 04:48:15;;;;;;;30.48;20.80;;;14.70;99.90;;;;;;5060615;28;20035;-85
2022/08/23 04:50:59;;;;;;;25.50;18.90;;;14.80;99.90;;;;;;5092239;28;20043;-84
2022/08/23 04:53:44;;;;;;;31.40;20.60;;;14.80;99.90;;;;;;5071651;28;20534;-85
2022/08/23 04:56:29;;;;;;;26.38;19.13;;;14.90;99.90;;;;;;5079869;28;20044;-86
2022/08/23 04:59:14;;;;;;;26.02;19.88;;;14.60;99.90;;;;;;5074027;28;20051;-84
2022/08/23 05:01:58;;;;;;;25.13;19.60;;;14.90;99.90;;;;;;5074708;28;20063;-84
2022/08/23 05:04:43;;;;;;;27.48;20.23;;;15.00;99.90;;;;;;5071088;28;20090;-85
2022/08/23 05:07:28;;;;;;;21.77;18.73;;;14.90;99.90;;;;;;5072418;28;20062;-84
2022/08/23 05:10:14;;;;;;;22.05;18.35;;;14.80;99.90;;;;;;5073843;28;20090;-84
2022/08/23 05:12:58;;;;;;;24.20;18.33;;;15.20;99.90;;;;;;5074029;28;20419;-84
2022/08/23 05:15:43;;;;;;;25.02;18.80;;;14.80;99.90;;;;;;5074054;28;20035;-84
2022/08/23 05:18:27;;;;;;;22.45;18.25;;;15.20;99.90;;;;;;5064526;28;20281;-84
2022/08/23 05:21:17;;;;;;;24.10;19.75;;;15.20;99.90;;;;;;5073216;28;20043;-85
2022/08/23 05:24:02;;;;;;;27.20;18.98;;;15.30;99.90;;;;;;5082386;28;20111;-84
2022/08/23 05:26:46;;;;;;;23.55;18.88;;;15.10;99.90;;;;;;5093320;28;20085;-83
2022/08/23 05:29:30;;;;;;;23.38;18.20;;;;;;;;;;5073782;28;20116;-85
2022/08/23 05:32:14;;;;;;;21.90;18.38;;;15.10;99.90;;;;;;5065966;28;20500;-84
2022/08/23 05:34:59;;;;;;;22.92;18.60;;;15.30;99.90;;;;;;5073955;28;20043;-84
2022/08/23 05:37:43;;;;;;;24.70;18.65;;;15.20;99.90;;;;;;5073815;28;20103;-84
2022/08/23 05:40:28;;;;;;;23.40;17.73;;;15.50;99.90;;;;;;5072266;28;20101;-84
2022/08/23 05:43:12;;;;;;;23.20;18.05;;;15.40;99.90;;;;;;5072482;28;20040;-84
2022/08/23 05:46:10;;;;;;;23.33;18.30;;;15.30;99.90;;;;;;5072698;28;20082;-84
2022/08/23 05:48:54;;;;;;;20.10;17.92;;;16.00;99.90;;;;;;5071100;28;20396;-84
2022/08/23 05:51:40;;;;;;;20.52;17.35;;;16.40;99.90;;;;;;5069555;28;20567;-84
2022/08/23 05:54:25;;;;;;;22.38;17.33;;;15.90;99.90;;;;;;5071861;28;20158;-85
2022/08/23 05:57:10;;;;;;;20.55;17.58;;;;;;;;;;5073288;28;20044;-85
2022/08/23 05:59:54;;;;;;;20.27;17.48;;;16.50;99.90;;;;;;5072241;28;20040;-86
2022/08/23 06:02:38;;;;;;;26.40;17.25;;;16.00;99.90;;;;;;5072161;28;20059;-86
2022/08/23 06:05:22;;;;;;;19.25;16.10;;;15.60;99.90;;;;;;5072970;28;20031;-86
2022/08/23 06:08:06;;;;;;;17.50;15.63;;;16.20;99.90;;;;;;5068668;28;20039;-86
2022/08/23 06:11:02;;;;;;;21.23;16.10;;;16.40;99.90;;;;;;5053977;28;20104;-86
2022/08/23 06:13:55;;;;;;;17.55;15.68;;;16.50;99.90;;;;;;5072572;28;20075;-86
2022/08/23 06:16:42;;;;;;;19.33;15.18;;;16.50;99.90;;;;;;5069282;28;20039;-86
2022/08/23 06:19:26;;;;;;;18.55;14.90;;;16.70;99.90;;;;;;5071786;28;20092;-86
2022/08/23 06:22:10;;;;;;;17.73;14.65;;;17.30;99.90;;;;;;5073074;28;20066;-86
2022/08/23 06:24:55;;;;;;;16.40;13.68;;;;;;;;;;5067075;28;20166;-87
2022/08/23 06:27:39;;;;;;;18.80;13.50;;;;;;;;;;5072949;28;20393;-86
2022/08/23 06:30:23;;;;;;;15.25;12.98;;;17.10;99.90;;;;;;5071342;28;20031;-86
2022/08/23 06:33:08;;;;;;;13.45;11.80;;;;;;;;;;5071900;28;20039;-86
2022/08/23 06:36:07;;;;;;;13.05;11.23;;;17.60;99.90;;;;;;5072971;28;20106;-86
2022/08/23 06:38:52;;;;;;;14.70;12.52;;;17.70;99.90;;;;;;5069917;28;20047;-86
2022/08/23 06:41:37;;;;;;;12.05;10.75;;;17.60;99.90;;;;;;5060150;28;20407;-85
2022/08/23 06:44:21;;;;;;;13.25;11.32;;;17.90;99.90;;;;;;5072368;28;20040;-85
2022/08/23 06:47:07;;;;;;;11.65;9.60;;;18.00;99.90;;;;;;5071742;28;20039;-85
2022/08/23 06:49:51;;;;;;;13.93;9.40;;;18.20;99.90;;;;;;5072690;28;20579;-85
2022/08/23 06:52:35;;;;;;;12.57;9.38;;;18.40;99.90;;;;;;5071296;28;20188;-85
2022/08/23 06:55:20;;;;;;;11.55;9.45;;;18.50;99.90;;;;;;5053921;28;20048;-86
2022/08/23 06:58:04;;;;;;;14.80;8.55;;;;;;;;;;5082929;28;20057;-85
2022/08/23 07:00:48;;;;;;;13.73;8.38;;;18.90;99.90;;;;;;5072654;28;20094;-85
2022/08/23 07:03:33;;;;;;;10.40;8.48;;;;;;;;;;5072055;28;20067;-85
2022/08/23 07:06:17;;;;;;;11.60;8.00;;;19.10;99.90;;;;;;5071422;28;20102;-85
2022/08/23 07:09:03;;;;;;;12.23;7.10;;;19.30;99.90;;;;;;5071581;28;20039;-85
2022/08/23 07:11:48;;;;;;;9.45;7.47;;;19.40;99.90;;;;;;5071830;28;20630;-85
2022/08/23 07:14:32;;;;;;;8.85;6.45;;;;;;;;;;5072000;28;20090;-85
2022/08/23 07:17:16;;;;;;;9.77;6.50;;;19.70;99.90;;;;;;5071542;28;20054;-85
2022/08/23 07:20:01;;;;;;;7.70;5.80;;;20.70;99.90;;;;;;5057190;28;20067;-85
2022/08/23 07:22:46;;;;;;;6.25;5.22;;;22.10;99.90;;;;;;5071006;28;20499;-85
2022/08/23 07:25:31;;;;;;;9.10;5.15;;;;;;;;;;5071769;28;20032;-87
2022/08/23 07:28:15;;;;;;;9.20;4.70;;;24.30;99.90;;;;;;5071497;28;20125;-86
2022/08/23 07:31:09;;;;;;;7.70;5.20;;;23.80;99.90;;;;;;5057236;28;20040;-87
2022/08/23 07:33:54;;;;;;;;;;;24.40;99.90;;;;;;5072514;28;20067;-85
2022/08/23 07:36:40;;;;;;;7.97;4.43;;;24.00;99.90;;;;;;5071815;28;19974;-85
2022/08/23 07:39:30;;;;;;;8.18;4.70;;;25.10;99.90;;;;;;5059633;28;20035;-86
2022/08/23 07:42:15;;;;;;;6.57;4.20;;;;;;;;;;5095415;28;20399;-84
2022/08/23 07:44:59;;;;;;;6.53;3.85;;;25.40;99.90;;;;;;5096722;28;20116;-85
2022/08/23 07:47:44;;;;;;;9.23;3.80;;;;;;;;;;5096069;28;20039;-85
2022/08/23 07:50:29;;;;;;;8.27;4.22;;;;;;;;;;5096032;28;20529;-86
2022/08/23 07:53:14;;;;;;;5.93;3.80;;;;;;;;;;5095287;28;20449;-84
2022/08/23 07:56:02;;;;;;;10.07;4.10;;;25.00;99.90;;;;;;5096565;28;20055;-85
2022/08/23 07:58:47;;;;;;;9.90;3.90;;;;;;;;;;5094839;28;20046;-86
2022/08/23 08:01:32;;;;;;;8.45;4.30;;;;;;;;;;5095842;28;20039;-86
2022/08/23 08:04:16;;;;;;;5.38;3.63;;;24.20;99.90;;;;;;5094941;28;20038;-85
2022/08/23 08:07:01;;;;;;;7.45;4.03;;;;;;;;;;5095133;28;20035;-85
2022/08/23 08:09:46;;;;;;;8.63;4.10;;;24.80;99.90;;;;;;5095836;28;20084;-85
2022/08/23 08:12:31;;;;;;;7.78;4.22;;;;;;;;;;5080138;28;20549;-84
2022/08/23 08:15:17;;;;;;;5.88;3.70;;;24.30;99.90;;;;;;5096137;28;20036;-84
2022/08/23 08:18:01;;;;;;;7.97;3.88;;;24.70;99.90;;;;;;5095175;28;20046;-84
2022/08/23 08:20:45;;;;;;;8.70;4.10;;;;;;;;;;5095862;28;20418;-83
2022/08/23 08:23:30;;;;;;;8.77;3.80;;;24.60;99.90;;;;;;5094645;28;20095;-85
2022/08/23 08:26:14;;;;;;;8.02;3.83;;;;;;;;;;5094401;28;20128;-82
2022/08/23 08:28:59;;;;;;;10.35;3.95;;;;;;;;;;5080275;28;20533;-82
2022/08/23 08:31:46;;;;;;;10.25;3.80;;;24.70;99.90;;;;;;5095022;28;20047;-82
2022/08/23 08:34:30;;;;;;;7.68;3.75;;;;;;;;;;5094765;28;20038;-83
2022/08/23 08:37:15;;;;;;;8.45;3.38;;;;;;;;;;5095628;28;20031;-83
2022/08/23 08:40:00;;;;;;;8.27;3.17;;;;;;;;;;5085962;28;20044;-83
2022/08/23 08:43:05;;;;;;;8.05;3.00;;;25.70;99.90;;;;;;5059564;28;20549;-82
2022/08/23 08:46:03;;;;;;;8.00;3.28;;;25.60;99.90;;;;;;5073522;28;20043;-83
2022/08/23 08:48:54;;;;;;;5.07;2.95;;;26.10;99.90;;;;;;5075091;28;20166;-82
2022/08/23 08:51:41;;;;;;;4.90;2.90;;;26.10;99.90;;;;;;5093194;28;20503;-83
2022/08/23 08:54:27;;;;;;;5.88;2.83;;;26.40;98.40;;;;;;5094729;28;20042;-82
2022/08/23 08:57:16;;;;;;;7.03;2.95;;;26.30;97.70;;;;;;5094135;28;20119;-82
2022/08/23 09:00:10;;;;;;;6.30;3.15;;;26.40;99.90;;;;;;5093672;28;20036;-82
2022/08/23 09:02:57;;;;;;;9.82;3.55;;;26.10;99.40;;;;;;5094315;28;20647;-82
2022/08/23 09:05:54;;;;;;;5.90;3.20;;;26.20;97.80;;;;;;5094608;28;20035;-82
2022/08/23 09:09:19;;;;;;;4.88;3.05;;;26.50;97.10;;;;;;5094383;28;20097;-83
2022/08/23 09:12:09;;;;;;;6.90;2.97;;;27.00;96.80;;;;;;5075400;28;20136;-83
2022/08/23 09:15:28;;;;;;;9.13;3.08;;;27.10;99.90;;;;;;5093934;28;20098;-84
2022/08/23 09:18:14;;;;;;;4.13;3.10;;;27.10;95.30;;;;;;5093547;28;20418;-83
2022/08/23 09:21:00;;;;;;;6.75;3.00;;;27.10;94.80;;;;;;5094296;28;20061;-83
2022/08/23 09:23:46;;;;;;;9.05;3.10;;;27.00;95.40;;;;;;5094093;28;20059;-83
2022/08/23 09:26:31;;;;;;;7.55;3.38;;;;;;;;;;5094707;28;20431;-83
2022/08/23 09:29:21;;;;;;;5.60;2.90;;;26.60;99.60;;;;;;5094575;28;20046;-83
2022/08/23 09:32:30;;;;;;;7.80;2.83;;;27.40;94.60;;;;;;5094269;28;20074;-83
2022/08/23 09:35:21;;;;;;;7.10;3.10;;;27.70;93.30;;;;;;5094212;28;20039;-83
2022/08/23 09:38:19;;;;;;;7.82;3.17;;;28.40;97.00;;;;;;5094252;28;20055;-83
2022/08/23 09:41:18;;;;;;;4.88;2.88;;;27.90;93.30;;;;;;5075506;28;20031;-84
2022/08/23 09:44:06;;;;;;;6.40;2.70;;;27.90;95.80;;;;;;5073514;28;20044;-83
2022/08/23 09:46:50;;;;;;;6.82;2.90;;;;;;;;;;5087640;28;20035;-84
2022/08/23 09:49:35;;;;;;;7.10;2.92;;;;;;;;;;5078895;28;20039;-84
2022/08/23 09:52:20;;;;;;;5.85;2.67;;;;;;;;;;5093153;28;20047;-83
2022/08/23 09:55:24;;;;;;;6.30;2.78;;;28.00;91.60;;;;;;5092533;28;20036;-84
2022/08/23 09:58:28;;;;;;;5.38;2.83;;;28.20;94.60;;;;;;5092938;28;20039;-84
2022/08/23 10:01:26;;;;;;;7.35;2.78;;;28.20;94.50;;;;;;5093894;28;20466;-83
2022/08/23 10:04:21;;;;;;;4.20;2.70;;;27.90;92.70;;;;;;5072047;28;20108;-83
2022/08/23 10:07:42;;;;;;;5.35;2.80;;;28.00;93.30;;;;;;5092371;28;20462;-83
2022/08/23 10:10:34;;;;;;;7.65;2.22;;;28.40;91.30;;;;;;5093409;28;20108;-83
2022/08/23 10:13:19;;;;;;;8.98;2.55;;;;;;;;;;5093490;28;20090;-83
2022/08/23 10:16:20;;;;;;;6.78;2.38;;;28.50;93.90;;;;;;5092341;28;20094;-84
2022/08/23 10:19:22;;;;;;;5.90;2.58;;;28.30;95.10;;;;;;5093385;28;20057;-84
2022/08/23 10:22:17;;;;;;;7.60;2.67;;;29.10;87.60;;;;;;5093066;28;20047;-85
2022/08/23 10:25:14;;;;;;;7.45;3.20;;;29.20;84.60;;;;;;5093123;28;20077;-84
2022/08/23 10:31:46;;;;;;;8.30;2.83;;;29.10;94.60;;;;;;5079635;28;20408;-84
2022/08/23 10:34:41;;;;;;;6.88;2.35;;;;;;;;;;5073781;28;20467;-84
2022/08/23 10:37:29;;;;;;;5.22;2.58;;;;;;;;;;5065834;28;20086;-84
2022/08/23 10:40:27;;;;;;;6.57;2.25;;;;;;;;;;5082909;28;20042;-83
2022/08/23 10:43:24;;;;;;;8.55;2.50;;;;;;;;;;5059207;28;20059;-84
2022/08/23 10:46:10;;;;;;;7.28;2.45;;;;;;;;;;5072414;28;20098;-83
2022/08/23 10:48:56;;;;;;;5.32;1.80;;;;;;;;;;5071434;28;20039;-83
2022/08/23 10:51:46;;;;;;;4.90;2.10;;;;;;;;;;5071716;28;20043;-84
2022/08/23 10:54:58;;;;;;;7.55;2.50;;;30.60;86.50;;;;;;5072625;28;20040;-83
2022/08/23 10:57:45;;;;;;;5.18;2.30;;;30.20;71.20;;;;;;5072593;28;20182;-86
2022/08/23 11:00:33;;;;;;;4.50;2.20;;;30.20;70.80;;;;;;5072773;28;20587;-84
2022/08/23 11:03:42;;;;;;;7.22;2.00;;;30.30;72.40;;;;;;5089217;28;20063;-84
2022/08/23 11:06:36;;;;;;;6.50;2.40;;;29.80;79.80;;;;;;5086018;28;20400;-84
2022/08/23 11:09:20;;;;;;;4.65;2.30;;;;;;;;;;5071678;28;20151;-85
2022/08/23 11:12:05;;;;;;;4.70;2.00;;;;;;;;;;5091991;28;20610;-85
2022/08/23 11:14:56;;;;;;;6.25;2.58;;;31.20;83.70;;;;;;5092134;28;20039;-85
2022/08/23 11:17:41;;;;;;;8.05;2.60;;;;;;;;;;5091709;28;20503;-86
2022/08/23 11:20:50;;;;;;;6.22;2.67;;;30.80;78.20;;;;;;5092580;28;20449;-84
2022/08/23 11:23:46;;;;;;;8.52;2.47;;;30.90;78.20;;;;;;5092437;28;20039;-84
2022/08/23 11:26:38;;;;;;;6.35;2.70;;;31.50;77.60;;;;;;5092638;28;20034;-84
2022/08/23 11:29:23;;;;;;;4.57;2.40;;;;;;;;;;5065462;28;20035;-84
2022/08/23 11:32:08;;;;;;;8.13;3.13;;;;;;;;;;5090924;28;20051;-84
2022/08/23 11:35:22;;;;;;;5.30;2.03;;;30.70;73.70;;;;;;5092497;28;20051;-84
2022/08/23 11:38:07;;;;;;;5.45;2.08;;;31.50;64.10;;;;;;5092224;28;20441;-84
2022/08/23 11:40:54;;;;;;;7.38;2.20;;;;;;;;;;5076534;28;20495;-85
2022/08/23 11:43:40;;;;;;;5.28;1.88;;;;;;;;;;5072227;28;20545;-86
2022/08/23 11:46:25;;;;;;;6.93;2.22;;;;;;;;;;5072109;28;20089;-85
2022/08/23 11:49:28;;;;;;;5.20;2.00;;;31.00;69.00;;;;;;5071752;28;20502;-84
2022/08/23 11:52:32;;;;;;;5.05;1.90;;;31.20;68.70;;;;;;5062437;28;20071;-84
2022/08/23 11:55:17;;;;;;;4.97;2.10;;;;;;;;;;5059811;28;20491;-84
2022/08/23 11:58:22;;;;;;;3.67;1.95;;;31.70;60.30;;;;;;5071611;28;20062;-85
2022/08/23 12:01:08;;;;;;;4.60;2.00;;;31.60;59.40;;;;;;5071763;28;20039;-84
2022/08/23 12:03:53;;;;;;;4.43;1.77;;;;;;;;;;5071060;28;20071;-84
2022/08/23 12:06:54;;;;;;;5.55;2.35;;;31.60;58.00;;;;;;5071962;28;20089;-84
2022/08/23 12:09:39;;;;;;;6.57;2.00;;;;;;;;;;5072010;28;20186;-85
2022/08/23 12:12:27;;;;;;;5.88;2.17;;;31.80;59.00;;;;;;5071695;28;20063;-84
2022/08/23 12:15:12;;;;;;;4.40;1.95;;;;;;;;;;5071489;28;20108;-85
2022/08/23 12:18:10;;;;;;;7.07;1.98;;;32.10;56.90;;;;;;5070977;28;20553;-84
2022/08/23 12:21:00;;;;;;;3.85;2.08;;;31.40;70.20;;;;;;5071840;28;20063;-84
2022/08/23 12:23:49;;;;;;;3.40;1.73;;;32.10;56.70;;;;;;5076954;28;20038;-85
2022/08/23 12:26:57;;;;;;;5.22;2.00;;;31.80;59.90;;;;;;5094020;28;20039;-85
2022/08/23 12:29:58;;;;;;;5.18;2.05;;;31.60;61.30;;;;;;5094698;28;20102;-85
2022/08/23 12:33:07;;;;;;;5.13;1.95;;;31.50;56.40;;;;;;5094667;28;20127;-85
2022/08/23 12:35:51;;;;;;;4.75;2.17;;;;;;;;;;5095684;28;20043;-83
2022/08/23 12:38:41;;;;;;;5.80;2.42;;;31.70;57.90;;;;;;5069474;28;20081;-85
2022/08/23 12:41:49;;;;;;;5.38;1.77;;;32.30;62.90;;;;;;5060058;28;20036;-85
2022/08/23 12:44:33;;;;;;;5.43;2.13;;;;;;;;;;5075255;28;20039;-84
2022/08/23 12:47:19;;;;;;;6.03;2.05;;;32.40;57.20;;;;;;5073896;28;20043;-85
2022/08/23 12:50:12;;;;;;;5.32;1.95;;;32.60;57.20;;;;;;5062256;28;20051;-85
2022/08/23 12:53:10;;;;;;;6.28;2.15;;;33.10;62.60;;;;;;5074886;28;20047;-86
2022/08/23 12:56:13;;;;;;;5.78;2.47;;;32.60;55.70;;;;;;5074174;28;20086;-84
2022/08/23 12:59:02;;;;;;;6.43;2.38;;;32.70;55.00;;;;;;5065258;28;20610;-85
2022/08/23 13:01:46;;;;;;;5.28;2.28;;;;;;;;;;5074755;28;20120;-85
2022/08/23 13:04:33;;;;;;;6.05;2.28;;;32.40;55.40;;;;;;5073599;28;20040;-84
2022/08/23 13:07:22;;;;;;;10.10;2.53;;;32.10;55.00;;;;;;5063449;28;20404;-85
2022/08/23 13:10:08;;;;;;;5.57;2.28;;;31.90;57.00;;;;;;5074799;28;20032;-85
2022/08/23 13:12:53;;;;;;;4.82;1.90;;;;;;;;;;5073720;28;20058;-85
2022/08/23 13:15:50;;;;;;;9.60;2.88;;;31.00;60.00;;;;;;5074741;28;20093;-85
2022/08/23 13:18:37;;;;;;;7.78;2.42;;;31.90;62.80;;;;;;5074711;28;20036;-84
2022/08/23 13:21:31;;;;;;;5.68;2.35;;;31.30;55.60;;;;;;5073187;28;20070;-84
2022/08/23 13:24:28;;;;;;;7.47;2.80;;;31.20;56.30;;;;;;5073293;28;20059;-84
2022/08/23 13:27:25;;;;;;;7.50;2.50;;;31.50;61.30;;;;;;5073972;28;20109;-85
2022/08/23 13:30:10;;;;;;;5.32;2.35;;;;;;;;;;5074294;28;20035;-87
2022/08/23 13:33:06;;;;;;;6.22;2.20;;;31.90;60.10;;;;;;5074279;28;20079;-84
2022/08/23 13:36:05;;;;;;;5.28;2.35;;;31.60;55.60;;;;;;5073180;28;20040;-85
2022/08/23 13:38:50;;;;;;;4.70;2.22;;;;;;;;;;5073548;28;20031;-85
2022/08/23 13:41:35;;;;;;;7.13;2.60;;;31.70;55.00;;;;;;5046040;28;20090;-84
2022/08/23 13:44:21;;;;;;;5.60;2.40;;;;;;;;;;5073643;28;20039;-83
2022/08/23 13:47:06;;;;;;;6.32;2.20;;;31.80;54.10;;;;;;5074048;28;20036;-85
2022/08/23 13:49:51;;;;;;;4.53;2.15;;;31.90;55.00;;;;;;5072948;28;20039;-86
2022/08/23 13:52:36;;;;;;;6.35;2.10;;;;;;;;;;5073514;28;20106;-85
2022/08/23 13:55:22;;;;;;;5.25;2.08;;;31.50;52.90;;;;;;5073481;28;20036;-85
2022/08/23 13:58:11;;;;;;;7.40;2.60;;;31.40;53.40;;;;;;5072685;28;20376;-85
2022/08/23 14:00:57;;;;;;;6.82;2.47;;;31.30;53.30;;;;;;5073891;28;20111;-85
2022/08/23 14:03:41;;;;;;;7.30;2.50;;;;;;;;;;5073884;28;20043;-84
2022/08/23 14:06:26;;;;;;;4.97;2.50;;;;;;;;;;5073255;28;20039;-85
2022/08/23 14:09:10;;;;;;;6.70;2.95;;;;;;;;;;5073779;28;20158;-85
2022/08/23 14:11:57;;;;;;;7.45;2.05;;;31.20;55.20;;;;;;5072850;28;20059;-86
2022/08/23 14:14:42;;;;;;;4.43;2.00;;;;;;;;;;5073867;28;20123;-88
2022/08/23 14:17:27;;;;;;;5.50;2.20;;;31.60;54.80;;;;;;5068177;28;20111;-85
2022/08/23 14:20:15;;;;;;;4.68;2.33;;;31.60;54.20;;;;;;5071679;28;20116;-85
2022/08/23 14:23:00;;;;;;;5.40;2.20;;;;;;;;;;5072541;28;20124;-86
2022/08/23 14:25:44;;;;;;;7.43;2.58;;;;;;;;;;5067976;28;20031;-85
2022/08/23 14:28:30;;;;;;;5.75;2.28;;;31.20;54.40;;;;;;5057581;28;20166;-84
2022/08/23 14:31:14;;;;;;;9.50;2.60;;;;;;;;;;5071058;28;20070;-85
2022/08/23 14:33:59;;;;;;;5.68;2.53;;;;;;;;;;5071817;28;20135;-85
2022/08/23 14:36:43;;;;;;;6.07;2.20;;;;;;;;;;5058839;28;20091;-85
2022/08/23 14:39:28;;;;;;;6.95;2.20;;;;;;;;;;5062584;28;20043;-85
2022/08/23 14:42:16;;;;;;;5.85;2.17;;;31.80;53.10;;;;;;5080649;28;20043;-84
2022/08/23 14:45:01;;;;;;;5.60;2.60;;;;;;;;;;5072129;28;20043;-84
2022/08/23 14:47:46;;;;;;;6.03;2.42;;;;;;;;;;5071695;28;20158;-84
2022/08/23 14:50:30;;;;;;;5.50;2.55;;;;;;;;;;5070682;28;20047;-85
2022/08/23 14:53:17;;;;;;;6.68;2.40;;;31.70;53.60;;;;;;5070968;28;20086;-85
2022/08/23 14:56:01;;;;;;;6.57;2.55;;;;;;;;;;5069030;28;20043;-84
2022/08/23 14:58:46;;;;;;;5.85;2.50;;;;;;;;;;5069580;28;20107;-85
2022/08/23 15:01:30;;;;;;;6.57;2.50;;;;;;;;;;5080280;28;20039;-84
2022/08/23 15:04:19;;;;;;;8.48;2.53;;;31.10;53.60;;;;;;5075771;28;20401;-86
2022/08/23 15:07:04;;;;;;;8.88;2.38;;;31.00;53.50;;;;;;5059047;28;20043;-85
2022/08/23 15:09:53;;;;;;;7.45;2.38;;;30.90;53.40;;;;;;5069460;28;20392;-84